Time;durP1;ratioP1;P1;durP2;ratioP2;P2;SDS_P1;SDS_P2;PMS_P1;PMS_P2;Temp;Humidity;BMP_temperature;BMP_pressure;BME280_temperature;BME280_humidity;BME280_pressure;Samples;Min_cycle;Max_cycle;Signal;HPM_P1;HPM_P2
2023/06/17 00:01:07;;;;;;;2.37;2.00;;;;;;;;;;6281742;28;20032;-68
2023/06/17 00:04:07;;;;;;;3.30;1.80;;;;;;;;;;6280235;28;20021;-68
2023/06/17 00:07:08;;;;;;;3.53;1.90;;;;;;;;;;6278978;28;20024;-68
2023/06/17 00:10:08;;;;;;;2.30;1.63;;;;;;;;;;5923315;28;9999665;-67
2023/06/17 00:13:09;;;;;;;2.95;2.00;;;;;;;;;;6279926;28;20435;-67
2023/06/17 00:16:12;;;;;;;2.00;1.80;;;;;;;;;;6279008;28;20028;-67
2023/06/17 00:19:16;;;;;;;4.25;1.83;;;;;;;;;;6281914;28;20032;-68
2023/06/17 00:22:16;;;;;;;1.83;1.70;;;;;;;;;;6278466;28;20117;-68
2023/06/17 00:25:16;;;;;;;1.87;1.70;;;;;;;;;;6277796;28;20028;-70
2023/06/17 00:28:17;;;;;;;3.30;2.00;;;;;;;;;;6282321;28;20075;-69
2023/06/17 00:31:17;;;;;;;2.70;2.10;;;;;;;;;;6273467;28;20028;-68
2023/06/17 00:34:17;;;;;;;2.77;1.97;;;;;;;;;;6284744;28;20104;-69
2023/06/17 00:37:17;;;;;;;2.80;1.73;;;;;;;;;;6277443;28;20052;-67
2023/06/17 00:40:18;;;;;;;3.13;1.97;;;;;;;;;;6279595;28;20119;-66
2023/06/17 00:43:18;;;;;;;3.70;1.77;;;;;;;;;;6284426;28;20364;-68
2023/06/17 00:46:38;;;;;;;3.10;2.10;;;;;;;;;;6277682;28;20033;-69
2023/06/17 00:49:43;;;;;;;2.65;2.15;;;;;;;;;;6272728;28;20075;-68
2023/06/17 00:52:45;;;;;;;2.55;2.03;;;;;;;;;;6275084;28;20029;-68
2023/06/17 00:55:45;;;;;;;2.95;2.08;;;;;;;;;;6279736;28;20254;-68
2023/06/17 00:58:45;;;;;;;3.77;1.87;;;;;;;;;;6279996;28;20025;-67
2023/06/17 01:01:45;;;;;;;2.20;2.00;;;;;;;;;;6285211;28;20051;-66
2023/06/17 01:04:46;;;;;;;1.63;1.53;;;;;;;;;;6273847;28;20123;-65
2023/06/17 01:08:20;;;;;;;3.55;2.13;;;;;;;;;;6279270;28;20360;-67
2023/06/17 01:11:21;;;;;;;3.13;2.13;;;;;;;;;;6264814;28;20036;-67
2023/06/17 01:14:22;;;;;;;3.22;2.13;;;;;;;;;;6291947;28;20116;-67
2023/06/17 01:17:23;;;;;;;3.97;1.90;;;;;;;;;;6281162;28;20025;-67
2023/06/17 01:20:25;;;;;;;3.65;2.08;;;;;;;;;;6290788;28;20017;-67
2023/06/17 01:23:31;;;;;;;2.70;2.05;;;;;;;;;;6290671;28;20437;-67
2023/06/17 01:26:34;;;;;;;4.13;2.20;;;;;;;;;;6284950;28;20031;-67
2023/06/17 01:29:37;;;;;;;2.63;2.08;;;;;;;;;;6286691;28;20028;-68
2023/06/17 01:32:38;;;;;;;3.25;2.13;;;;;;;;;;6283211;28;20123;-71
2023/06/17 01:35:39;;;;;;;2.75;2.25;;;;;;;;;;6281167;28;20099;-68
2023/06/17 01:38:41;;;;;;;;;;;;;;;;;;6290155;28;20115;-68
2023/06/17 01:41:45;;;;;;;1.52;1.42;;;;;;;;;;6283357;28;19918;-68
2023/06/17 01:44:46;;;;;;;3.28;1.70;;;;;;;;;;6279112;28;20490;-68
2023/06/17 01:47:46;;;;;;;3.28;2.10;;;;;;;;;;6287056;28;20028;-67
2023/06/17 01:50:47;;;;;;;2.95;1.92;;;;;;;;;;6287688;28;20029;-68
2023/06/17 01:53:47;;;;;;;2.80;1.97;;;;;;;;;;6285388;28;21817;-67
2023/06/17 01:56:47;;;;;;;2.92;1.92;;;;;;;;;;6285542;28;21706;-67
2023/06/17 01:59:48;;;;;;;3.57;2.17;;;;;;;;;;6286763;28;20048;-68
2023/06/17 02:02:48;;;;;;;3.27;2.10;;;;;;;;;;6287871;28;20474;-68
2023/06/17 02:05:48;;;;;;;3.23;2.07;;;;;;;;;;6282879;28;20047;-67
2023/06/17 02:08:49;;;;;;;3.03;2.23;;;;;;;;;;6293722;28;20078;-68
2023/06/17 02:11:49;;;;;;;2.60;1.97;;;;;;;;;;6295663;28;20289;-68
2023/06/17 02:14:49;;;;;;;3.77;2.30;;;;;;;;;;6297177;28;20031;-68
2023/06/17 02:17:51;;;;;;;2.17;1.97;;;;;;;;;;6294721;28;20080;-68
2023/06/17 02:20:52;;;;;;;2.78;2.08;;;;;;;;;;6287902;28;20103;-67
2023/06/17 02:23:52;;;;;;;2.78;2.20;;;;;;;;;;6283583;28;20035;-69
2023/06/17 02:26:53;;;;;;;2.57;1.97;;;;;;;;;;6280480;28;20089;-67
2023/06/17 02:29:53;;;;;;;2.72;2.25;;;;;;;;;;6287379;28;20047;-69
2023/06/17 02:32:53;;;;;;;3.40;2.20;;;;;;;;;;6285165;28;20021;-67
2023/06/17 02:35:54;;;;;;;2.77;2.23;;;;;;;;;;6284009;28;20016;-69
2023/06/17 02:38:54;;;;;;;3.63;2.40;;;;;;;;;;6279246;28;20048;-67
2023/06/17 02:41:54;;;;;;;4.10;2.57;;;;;;;;;;6275757;28;20025;-67
2023/06/17 02:44:54;;;;;;;3.57;2.70;;;;;;;;;;6283510;28;20400;-67
2023/06/17 02:47:55;;;;;;;2.57;1.93;;;;;;;;;;6281074;28;20017;-67
2023/06/17 02:50:56;;;;;;;2.38;2.00;;;;;;;;;;6278858;28;20078;-67
2023/06/17 02:53:56;;;;;;;3.67;2.20;;;;;;;;;;6285258;28;20025;-68
2023/06/17 02:56:56;;;;;;;2.83;2.03;;;;;;;;;;6291702;28;20044;-68
2023/06/17 02:59:57;;;;;;;3.33;2.60;;;;;;;;;;6277122;28;20180;-68
2023/06/17 03:02:58;;;;;;;2.25;2.05;;;;;;;;;;6277310;28;20086;-68
2023/06/17 03:05:58;;;;;;;2.20;2.00;;;;;;;;;;6281921;28;20658;-68
2023/06/17 03:08:58;;;;;;;3.20;2.27;;;;;;;;;;6287804;28;20411;-67
2023/06/17 03:11:59;;;;;;;2.50;2.30;;;;;;;;;;6289171;28;20024;-69
2023/06/17 03:15:00;;;;;;;2.53;1.98;;;;;;;;;;6289959;28;20039;-69
2023/06/17 03:18:01;;;;;;;2.05;1.83;;;;;;;;;;6287281;28;20027;-67
2023/06/17 03:21:01;;;;;;;2.78;2.47;;;;;;;;;;6283603;28;20485;-66
2023/06/17 03:24:02;;;;;;;3.67;2.50;;;;;;;;;;6285947;28;20327;-68
2023/06/17 03:27:02;;;;;;;3.73;2.17;;;;;;;;;;6284328;28;20012;-68
2023/06/17 03:30:03;;;;;;;3.83;2.40;;;;;;;;;;6275258;28;20021;-70
2023/06/17 03:33:03;;;;;;;3.78;2.22;;;;;;;;;;6282490;28;20009;-67
2023/06/17 03:36:03;;;;;;;2.83;2.30;;;;;;;;;;6288938;28;20031;-67
2023/06/17 03:39:03;;;;;;;2.97;2.37;;;;;;;;;;6287743;28;20040;-67
2023/06/17 03:42:04;;;;;;;2.87;2.20;;;;;;;;;;6280113;28;20024;-67
2023/06/17 03:45:05;;;;;;;2.55;1.83;;;;;;;;;;6287645;28;20023;-68
2023/06/17 03:48:05;;;;;;;3.17;2.72;;;;;;;;;;6282871;28;20034;-67
2023/06/17 03:51:06;;;;;;;2.88;2.60;;;;;;;;;;6280486;28;20032;-69
2023/06/17 03:54:06;;;;;;;4.03;2.42;;;;;;;;;;6286480;28;20055;-69
2023/06/17 03:57:06;;;;;;;2.70;2.20;;;;;;;;;;6283507;28;20087;-68
2023/06/17 04:00:07;;;;;;;2.90;2.40;;;;;;;;;;6285829;28;20020;-69
2023/06/17 04:03:08;;;;;;;3.17;2.58;;;;;;;;;;6287105;28;20376;-69
2023/06/17 04:06:08;;;;;;;3.10;2.57;;;;;;;;;;6285253;28;20113;-69
2023/06/17 04:09:08;;;;;;;4.60;2.27;;;;;;;;;;6285074;28;20514;-69
2023/06/17 04:12:09;;;;;;;3.97;2.60;;;;;;;;;;6275270;28;20560;-67
2023/06/17 04:15:09;;;;;;;3.58;2.40;;;;;;;;;;6275780;28;20066;-70
2023/06/17 04:18:10;;;;;;;3.87;2.77;;;;;;;;;;6278762;28;20071;-69
2023/06/17 04:21:10;;;;;;;4.10;2.60;;;;;;;;;;6278025;28;20270;-69
2023/06/17 04:24:10;;;;;;;3.17;2.47;;;;;;;;;;6278865;28;20532;-69
2023/06/17 04:27:11;;;;;;;3.87;2.70;;;;;;;;;;6278500;28;20274;-69
2023/06/17 04:30:15;;;;;;;;;;;;;;;;;;6278452;28;20083;-69
2023/06/17 04:33:15;;;;;;;3.33;2.50;;;;;;;;;;6280090;28;19926;-69
2023/06/17 04:36:17;;;;;;;3.90;2.70;;;;;;;;;;6280294;28;20519;-69
2023/06/17 04:39:17;;;;;;;3.17;2.33;;;;;;;;;;6286849;28;20497;-70
2023/06/17 04:42:17;;;;;;;3.30;2.90;;;;;;;;;;6279289;28;20068;-67
2023/06/17 04:45:18;;;;;;;2.97;2.67;;;;;;;;;;6283528;28;20033;-67
2023/06/17 04:48:19;;;;;;;4.07;2.88;;;;;;;;;;6288803;28;20037;-67
2023/06/17 04:51:20;;;;;;;4.38;3.05;;;;;;;;;;6287695;28;20151;-69
2023/06/17 04:54:20;;;;;;;3.85;3.10;;;;;;;;;;6289302;28;20483;-69
2023/06/17 04:57:20;;;;;;;5.50;3.10;;;;;;;;;;6292616;28;20020;-68
2023/06/17 05:00:20;;;;;;;3.37;3.03;;;;;;;;;;6282890;28;20044;-68
2023/06/17 05:03:21;;;;;;;3.90;2.80;;;;;;;;;;6280700;28;20031;-68
2023/06/17 05:06:21;;;;;;;;;;;;;;;;;;6289400;28;20024;-68
2023/06/17 05:09:22;;;;;;;3.67;2.70;;;;;;;;;;6292578;28;20004;-68
2023/06/17 05:12:22;;;;;;;;;;;;;;;;;;6291280;28;20017;-68
2023/06/17 05:15:22;;;;;;;3.10;2.20;;;;;;;;;;6292522;28;19985;-69
2023/06/17 05:18:23;;;;;;;2.93;2.67;;;;;;;;;;6285131;28;20079;-68
2023/06/17 05:21:23;;;;;;;5.03;2.73;;;;;;;;;;6290074;28;20044;-68
2023/06/17 05:24:23;;;;;;;2.72;2.38;;;;;;;;;;6282401;28;20028;-67
2023/06/17 05:27:23;;;;;;;2.50;2.30;;;;;;;;;;6284327;28;20021;-68
2023/06/17 05:30:24;;;;;;;2.90;2.50;;;;;;;;;;6278527;28;20158;-69
2023/06/17 05:33:24;;;;;;;2.63;2.13;;;;;;;;;;6285694;28;20290;-63
2023/06/17 05:36:24;;;;;;;2.40;1.95;;;;;;;;;;6285458;28;20431;-62
2023/06/17 05:39:25;;;;;;;;;;;;;;;;;;6284218;28;20039;-67
2023/06/17 05:42:25;;;;;;;2.55;2.10;;;;;;;;;;6286790;28;19908;-68
2023/06/17 05:45:25;;;;;;;;;;;;;;;;;;6284984;28;20103;-65
2023/06/17 05:48:25;;;;;;;3.03;2.10;;;;;;;;;;5930732;28;9999728;-65
2023/06/17 05:51:28;;;;;;;;;;;;;;;;;;6279318;28;20090;-65
2023/06/17 05:54:28;;;;;;;1.95;1.52;;;;;;;;;;6278390;28;21262;-67
2023/06/17 05:57:28;;;;;;;;;;;;;;;;;;6275923;28;20021;-66
2023/06/17 06:00:28;;;;;;;1.60;1.48;;;;;;;;;;6284408;28;19916;-66
2023/06/17 06:03:28;;;;;;;;;;;;;;;;;;6284130;28;20021;-64
2023/06/17 06:06:29;;;;;;;1.80;1.55;;;;;;;;;;6279886;28;20103;-65
2023/06/17 06:09:29;;;;;;;2.65;1.90;;;;;;;;;;6281387;28;20082;-69
2023/06/17 06:12:30;;;;;;;;;;;;;;;;;;6279406;28;20459;-67
2023/06/17 06:15:30;;;;;;;1.98;1.80;;;;;;;;;;6281927;28;19916;-65
2023/06/17 06:18:31;;;;;;;2.38;2.17;;;;;;;;;;6266566;28;20512;-67
2023/06/17 06:21:31;;;;;;;;;;;;;;;;;;6279562;28;20070;-67
2023/06/17 06:24:31;;;;;;;2.10;1.85;;;;;;;;;;6282695;28;20466;-66
2023/06/17 06:27:31;;;;;;;;;;;;;;;;;;6280806;28;20028;-66
2023/06/17 06:30:31;;;;;;;2.30;1.90;;;;;;;;;;6280807;28;20328;-66
2023/06/17 06:33:31;;;;;;;;;;;;;;;;;;6283651;28;20408;-68
2023/06/17 06:36:32;;;;;;;2.72;1.85;;;;;;;;;;6275831;28;19912;-66
2023/06/17 06:39:34;;;;;;;2.35;1.92;;;;;;;;;;6235173;28;1145470;-65
2023/06/17 06:42:35;;;;;;;1.83;1.73;;;;;;;;;;6281964;28;20020;-66
2023/06/17 06:45:35;;;;;;;3.08;2.35;;;;;;;;;;6277765;28;20027;-65
2023/06/17 06:48:36;;;;;;;;;;;;;;;;;;6279284;28;20405;-67
2023/06/17 06:51:36;;;;;;;2.13;1.90;;;;;;;;;;6281480;28;19912;-66
2023/06/17 06:54:36;;;;;;;;;;;;;;;;;;6275079;28;20021;-67
2023/06/17 06:57:37;;;;;;;2.90;2.00;;;;;;;;;;6277227;28;20050;-67
2023/06/17 07:00:39;;;;;;;;;;;;;;;;;;6281468;28;20398;-66
2023/06/17 07:03:39;;;;;;;1.73;1.55;;;;;;;;;;6277928;28;20417;-66
2023/06/17 07:06:39;;;;;;;;;;;;;;;;;;6285439;28;20032;-66
2023/06/17 07:09:40;;;;;;;3.78;1.48;;;;;;;;;;6280939;28;19916;-65
2023/06/17 07:12:40;;;;;;;2.03;1.70;;;;;;;;;;6286097;28;20461;-66
2023/06/17 07:15:41;;;;;;;;;;;;;;;;;;6286043;28;20839;-71
2023/06/17 07:18:41;;;;;;;1.98;1.77;;;;;;;;;;6281653;28;19912;-71
2023/06/17 07:21:41;;;;;;;;;;;;;;;;;;6284676;28;20025;-70
2023/06/17 07:24:41;;;;;;;2.47;1.80;;;;;;;;;;6284203;28;20373;-70
2023/06/17 07:27:41;;;;;;;1.53;1.43;;;;;;;;;;6280245;28;20036;-71
2023/06/17 07:30:42;;;;;;;1.63;1.50;;;;;;;;;;6284808;28;20287;-69
2023/06/17 07:33:42;;;;;;;2.17;1.98;;;;;;;;;;6278520;28;20267;-71
2023/06/17 07:36:42;;;;;;;3.47;1.55;;;;;;;;;;6282098;28;20095;-69
2023/06/17 07:39:44;;;;;;;2.72;1.70;;;;;;;;;;6286229;28;20043;-68
2023/06/17 07:42:45;;;;;;;2.22;1.70;;;;;;;;;;6281068;28;20025;-70
2023/06/17 07:45:45;;;;;;;2.65;1.55;;;;;;;;;;6275301;28;20031;-70
2023/06/17 07:48:45;;;;;;;1.70;1.60;;;;;;;;;;6283140;28;20497;-70
2023/06/17 07:51:46;;;;;;;2.40;2.20;;;;;;;;;;6277059;28;20515;-68
2023/06/17 07:54:47;;;;;;;2.17;1.98;;;;;;;;;;6265606;28;20286;-69
2023/06/17 07:57:48;;;;;;;2.13;1.92;;;;;;;;;;6272287;28;20017;-70
2023/06/17 08:00:48;;;;;;;4.30;2.85;;;;;;;;;;6271739;28;20466;-69
2023/06/17 08:03:48;;;;;;;2.40;2.13;;;;;;;;;;6275951;28;20485;-71
2023/06/17 08:06:49;;;;;;;3.30;1.95;;;;;;;;;;6280153;28;20782;-71
2023/06/17 08:09:49;;;;;;;2.38;2.05;;;;;;;;;;6267319;28;20459;-70
2023/06/17 08:12:50;;;;;;;2.30;2.10;;;;;;;;;;6282856;28;20440;-71
2023/06/17 08:15:51;;;;;;;2.70;2.00;;;;;;;;;;6270685;28;20040;-69
2023/06/17 08:18:52;;;;;;;2.13;1.90;;;;;;;;;;6276976;28;20016;-69
2023/06/17 08:21:52;;;;;;;2.00;1.90;;;;;;;;;;6286262;28;20024;-69
2023/06/17 08:24:52;;;;;;;3.27;2.07;;;;;;;;;;6290345;28;20046;-69
2023/06/17 08:27:53;;;;;;;2.10;1.90;;;;;;;;;;6285750;28;20303;-69
2023/06/17 08:30:53;;;;;;;2.00;1.80;;;;;;;;;;6283590;28;20499;-68
2023/06/17 08:33:53;;;;;;;1.73;1.63;;;;;;;;;;6280350;28;20285;-69
2023/06/17 08:36:54;;;;;;;2.17;1.80;;;;;;;;;;6275267;28;20273;-68
2023/06/17 08:39:54;;;;;;;2.30;2.00;;;;;;;;;;6278436;28;20032;-69
2023/06/17 08:43:03;;;;;;;3.20;2.03;;;;;;;;;;6277854;28;20773;-71
2023/06/17 08:46:04;;;;;;;2.97;2.25;;;;;;;;;;6282824;28;20020;-69
2023/06/17 08:49:07;;;;;;;2.60;2.05;;;;;;;;;;6275471;28;20400;-71
2023/06/17 08:52:07;;;;;;;2.22;2.05;;;;;;;;;;6279666;28;20024;-71
2023/06/17 08:55:08;;;;;;;2.00;1.80;;;;;;;;;;6277128;28;20025;-71
2023/06/17 08:58:08;;;;;;;2.38;2.15;;;;;;;;;;6278971;28;20077;-70
2023/06/17 09:01:09;;;;;;;2.22;2.03;;;;;;;;;;6276172;28;20032;-71
2023/06/17 09:04:09;;;;;;;2.08;1.98;;;;;;;;;;6299745;28;20024;-67
2023/06/17 09:07:10;;;;;;;3.25;1.60;;;;;;;;;;6288193;28;20028;-67
2023/06/17 09:10:14;;;;;;;3.88;2.40;;;;;;;;;;6276236;28;21761;-71
2023/06/17 09:13:14;;;;;;;2.90;2.60;;;;;;;;;;6279502;28;20020;-68
2023/06/17 09:16:14;;;;;;;2.50;2.30;;;;;;;;;;6269163;28;20100;-67
2023/06/17 09:19:15;;;;;;;3.90;2.40;;;;;;;;;;6271378;28;20287;-69
2023/06/17 09:22:16;;;;;;;2.60;2.40;;;;;;;;;;6271945;28;20743;-68
2023/06/17 09:25:17;;;;;;;2.75;2.25;;;;;;;;;;6279959;28;20036;-67
2023/06/17 09:28:18;;;;;;;2.55;2.28;;;;;;;;;;6281324;28;20059;-69
2023/06/17 09:31:18;;;;;;;2.10;1.97;;;;;;;;;;6281103;28;20024;-69
2023/06/17 09:34:19;;;;;;;2.22;2.00;;;;;;;;;;6275689;28;20527;-67
2023/06/17 09:37:20;;;;;;;1.95;1.77;;;;;;;;;;6279158;28;20024;-68
2023/06/17 09:40:20;;;;;;;2.15;1.98;;;;;;;;;;6280570;28;20445;-68
2023/06/17 09:43:26;;;;;;;2.53;2.08;;;;;;;;;;6280834;28;20039;-69
2023/06/17 09:46:35;;;;;;;2.25;2.00;;;;;;;;;;6282387;28;20025;-68
2023/06/17 09:49:36;;;;;;;2.22;1.83;;;;;;;;;;6276162;28;20032;-68
2023/06/17 09:52:37;;;;;;;2.33;2.13;;;;;;;;;;6281995;28;20421;-69
2023/06/17 09:55:38;;;;;;;2.05;1.95;;;;;;;;;;6278376;28;20071;-68
2023/06/17 09:58:38;;;;;;;2.10;2.00;;;;;;;;;;6275873;28;20093;-68
2023/06/17 10:01:39;;;;;;;4.13;2.28;;;;;;;;;;6279128;28;20025;-69
2023/06/17 10:04:39;;;;;;;2.35;1.88;;;;;;;;;;6275060;28;20047;-68
2023/06/17 10:07:41;;;;;;;2.55;2.15;;;;;;;;;;6281921;28;20027;-70
2023/06/17 10:10:41;;;;;;;3.38;2.00;;;;;;;;;;6284669;28;20482;-72
2023/06/17 10:13:42;;;;;;;2.30;2.10;;;;;;;;;;6284652;28;20233;-71
2023/06/17 10:16:43;;;;;;;2.58;2.38;;;;;;;;;;6276051;28;20112;-69
2023/06/17 10:19:45;;;;;;;2.30;2.08;;;;;;;;;;6270911;28;20631;-70
2023/06/17 10:22:46;;;;;;;2.30;2.13;;;;;;;;;;6274182;28;20032;-69
2023/06/17 10:25:47;;;;;;;2.35;1.90;;;;;;;;;;6278969;28;20024;-68
2023/06/17 10:28:53;;;;;;;2.20;2.00;;;;;;;;;;6274039;28;20024;-68
2023/06/17 10:31:53;;;;;;;2.15;1.95;;;;;;;;;;6284240;28;20302;-67
2023/06/17 10:35:06;;;;;;;2.53;2.27;;;;;;;;;;6278534;28;20036;-68
2023/06/17 10:38:10;;;;;;;2.20;2.00;;;;;;;;;;6276190;28;20464;-68
2023/06/17 10:41:11;;;;;;;2.75;2.22;;;;;;;;;;6272381;28;20059;-69
2023/06/17 10:44:31;;;;;;;2.45;2.20;;;;;;;;;;6266216;28;20021;-69
2023/06/17 10:47:32;;;;;;;2.42;2.22;;;;;;;;;;6271264;28;20040;-68
2023/06/17 10:50:35;;;;;;;4.10;2.30;;;;;;;;;;6285373;28;20146;-68
2023/06/17 10:53:36;;;;;;;2.63;2.33;;;;;;;;;;6275293;28;20267;-70
2023/06/17 10:56:49;;;;;;;2.53;2.33;;;;;;;;;;6285952;28;20021;-68
2023/06/17 10:59:49;;;;;;;2.10;1.90;;;;;;;;;;6287178;28;20132;-69
2023/06/17 11:02:49;;;;;;;3.10;2.20;;;;;;;;;;6276834;28;20535;-68
2023/06/17 11:05:50;;;;;;;2.60;2.25;;;;;;;;;;6273215;28;20025;-70
2023/06/17 11:08:50;;;;;;;2.40;2.10;;;;;;;;;;6282952;28;20016;-71
2023/06/17 11:11:51;;;;;;;2.67;2.10;;;;;;;;;;6271863;28;20033;-71
2023/06/17 11:14:51;;;;;;;2.80;2.50;;;;;;;;;;6278866;28;20310;-68
2023/06/17 11:17:58;;;;;;;2.67;2.30;;;;;;;;;;6275167;28;20017;-67
2023/06/17 11:20:58;;;;;;;2.78;2.58;;;;;;;;;;6271625;28;20023;-69
2023/06/17 11:23:59;;;;;;;4.50;2.60;;;;;;;;;;6284446;28;20675;-69
2023/06/17 11:27:00;;;;;;;2.40;2.22;;;;;;;;;;6273288;28;20427;-69
2023/06/17 11:30:02;;;;;;;3.40;2.42;;;;;;;;;;6275285;28;20261;-69
2023/06/17 11:33:03;;;;;;;2.50;2.30;;;;;;;;;;6273743;28;20021;-70
2023/06/17 11:36:03;;;;;;;2.73;2.23;;;;;;;;;;6280240;28;20025;-69
2023/06/17 11:39:04;;;;;;;3.25;2.33;;;;;;;;;;6273350;28;20027;-70
2023/06/17 11:42:05;;;;;;;3.50;2.25;;;;;;;;;;6273356;28;20554;-69
2023/06/17 11:45:06;;;;;;;2.58;2.30;;;;;;;;;;6280226;28;20075;-67
2023/06/17 11:48:06;;;;;;;4.07;2.22;;;;;;;;;;6271752;28;21103;-69
2023/06/17 11:51:07;;;;;;;2.65;2.30;;;;;;;;;;6277400;28;20024;-70
2023/06/17 11:54:08;;;;;;;2.63;2.40;;;;;;;;;;6279283;28;20020;-68
2023/06/17 11:57:08;;;;;;;2.10;1.90;;;;;;;;;;6271481;28;20090;-69
2023/06/17 12:00:10;;;;;;;2.80;2.25;;;;;;;;;;6275134;28;20021;-69
2023/06/17 12:03:12;;;;;;;2.80;2.60;;;;;;;;;;5936399;28;9999866;-68
2023/06/17 12:06:19;;;;;;;2.83;2.30;;;;;;;;;;6275256;28;20092;-67
2023/06/17 12:09:19;;;;;;;3.13;2.25;;;;;;;;;;6274786;28;20064;-68
2023/06/17 12:12:29;;;;;;;2.58;2.38;;;;;;;;;;6270577;28;20029;-68
2023/06/17 12:15:30;;;;;;;2.45;2.05;;;;;;;;;;6270917;28;20016;-67
2023/06/17 12:18:30;;;;;;;2.50;2.30;;;;;;;;;;6281989;28;20441;-71
2023/06/17 12:21:30;;;;;;;2.07;1.87;;;;;;;;;;6277231;28;20293;-68
2023/06/17 12:24:30;;;;;;;2.40;2.20;;;;;;;;;;6272702;28;20025;-68
2023/06/17 12:27:32;;;;;;;3.13;2.20;;;;;;;;;;6284217;28;20028;-68
2023/06/17 12:30:35;;;;;;;2.60;2.40;;;;;;;;;;6271719;28;20564;-67
2023/06/17 12:33:36;;;;;;;3.17;2.85;;;;;;;;;;6273576;28;20300;-69
2023/06/17 12:36:36;;;;;;;2.80;2.53;;;;;;;;;;6274598;28;20093;-70
2023/06/17 12:39:37;;;;;;;3.67;2.60;;;;;;;;;;6281565;28;20046;-68
2023/06/17 12:42:38;;;;;;;4.40;2.50;;;;;;;;;;6270555;28;20324;-69
2023/06/17 12:45:38;;;;;;;5.13;2.25;;;;;;;;;;6275375;28;20118;-69
2023/06/17 12:48:41;;;;;;;3.67;2.40;;;;;;;;;;6275385;28;20028;-69
2023/06/17 12:51:41;;;;;;;2.20;2.00;;;;;;;;;;6278902;28;20127;-70
2023/06/17 12:54:44;;;;;;;2.10;2.00;;;;;;;;;;6280590;28;20020;-69
2023/06/17 12:57:45;;;;;;;2.03;1.80;;;;;;;;;;6273884;28;20114;-69
2023/06/17 13:00:46;;;;;;;1.70;1.60;;;;;;;;;;6278491;28;20028;-66
2023/06/17 13:03:46;;;;;;;2.10;1.40;;;;;;;;;;6273427;28;20339;-68
2023/06/17 13:06:46;;;;;;;1.80;1.50;;;;;;;;;;6275752;28;20275;-68
2023/06/17 13:09:46;;;;;;;1.90;1.53;;;;;;;;;;6279876;28;20029;-69
2023/06/17 13:12:47;;;;;;;2.90;1.67;;;;;;;;;;6279914;28;20374;-69
2023/06/17 13:15:47;;;;;;;1.67;1.40;;;;;;;;;;6284109;28;20291;-69
2023/06/17 13:18:48;;;;;;;2.90;1.67;;;;;;;;;;6278784;28;20067;-70
2023/06/17 13:21:48;;;;;;;1.60;1.50;;;;;;;;;;6283580;28;20032;-70
2023/06/17 13:24:49;;;;;;;1.60;1.50;;;;;;;;;;6288305;28;20032;-70
2023/06/17 13:27:49;;;;;;;1.50;1.40;;;;;;;;;;6280436;28;20032;-68
2023/06/17 13:30:50;;;;;;;1.43;1.33;;;;;;;;;;6280600;28;20025;-70
2023/06/17 13:33:51;;;;;;;1.63;1.50;;;;;;;;;;6283993;28;20021;-70
2023/06/17 13:36:51;;;;;;;1.75;1.65;;;;;;;;;;6278700;28;20021;-69
2023/06/17 13:39:55;;;;;;;2.47;1.60;;;;;;;;;;6282363;28;20140;-68
2023/06/17 13:42:56;;;;;;;1.80;1.70;;;;;;;;;;6283932;28;20032;-72
2023/06/17 13:45:56;;;;;;;2.55;1.83;;;;;;;;;;6281726;28;20071;-70
2023/06/17 13:48:57;;;;;;;2.70;1.70;;;;;;;;;;6278860;28;20032;-69
2023/06/17 13:51:58;;;;;;;3.07;2.60;;;;;;;;;;6282157;28;20099;-69
2023/06/17 13:54:58;;;;;;;3.08;2.78;;;;;;;;;;6277026;28;20275;-70
2023/06/17 13:57:59;;;;;;;2.70;2.50;;;;;;;;;;6281366;28;20084;-70
2023/06/17 14:00:59;;;;;;;2.13;2.00;;;;;;;;;;6295319;28;20031;-70
2023/06/17 14:03:59;;;;;;;2.30;2.10;;;;;;;;;;6292492;28;20031;-71
2023/06/17 14:06:59;;;;;;;1.83;1.73;;;;;;;;;;6291286;28;20497;-68
2023/06/17 14:10:00;;;;;;;2.17;1.73;;;;;;;;;;6282997;28;20036;-70
2023/06/17 14:13:01;;;;;;;1.75;1.65;;;;;;;;;;6277626;28;20031;-68
2023/06/17 14:16:01;;;;;;;2.08;1.98;;;;;;;;;;6277681;28;20021;-69
2023/06/17 14:19:01;;;;;;;1.85;1.75;;;;;;;;;;6284761;28;20029;-70
2023/06/17 14:22:06;;;;;;;1.60;1.50;;;;;;;;;;6278390;28;20021;-70
2023/06/17 14:25:07;;;;;;;2.00;1.90;;;;;;;;;;6285095;28;20020;-70
2023/06/17 14:28:08;;;;;;;1.77;1.67;;;;;;;;;;6276619;28;20028;-69
2023/06/17 14:31:08;;;;;;;1.73;1.63;;;;;;;;;;6275140;28;20099;-70
2023/06/17 14:34:08;;;;;;;1.90;1.80;;;;;;;;;;6281735;28;20012;-70
2023/06/17 14:37:08;;;;;;;2.13;2.03;;;;;;;;;;6284794;28;20023;-70
2023/06/17 14:40:09;;;;;;;2.50;2.30;;;;;;;;;;6279382;28;20046;-70
2023/06/17 14:43:10;;;;;;;2.88;2.67;;;;;;;;;;6282070;28;20461;-69
2023/06/17 14:46:11;;;;;;;2.08;1.83;;;;;;;;;;6280747;28;20565;-69
2023/06/17 14:49:11;;;;;;;2.20;1.85;;;;;;;;;;6278721;28;20031;-69
2023/06/17 14:52:11;;;;;;;2.37;2.07;;;;;;;;;;6290857;28;20073;-69
2023/06/17 14:55:12;;;;;;;1.90;1.80;;;;;;;;;;6280980;28;20025;-68
2023/06/17 14:58:12;;;;;;;2.10;2.00;;;;;;;;;;6278919;28;20017;-69
2023/06/17 15:01:12;;;;;;;2.00;1.80;;;;;;;;;;6282558;28;20742;-70
2023/06/17 15:04:13;;;;;;;2.07;1.90;;;;;;;;;;6278370;28;20642;-70
2023/06/17 15:07:13;;;;;;;1.83;1.73;;;;;;;;;;6283538;28;20462;-69
2023/06/17 15:10:13;;;;;;;2.43;2.23;;;;;;;;;;6280412;28;20112;-68
2023/06/17 15:13:14;;;;;;;2.27;2.17;;;;;;;;;;6282583;28;20107;-70
2023/06/17 15:16:15;;;;;;;2.60;2.40;;;;;;;;;;6281526;28;20685;-70
2023/06/17 15:19:15;;;;;;;1.90;1.80;;;;;;;;;;6274480;28;20349;-70
2023/06/17 15:22:16;;;;;;;2.33;2.15;;;;;;;;;;6276006;28;20119;-70
2023/06/17 15:25:16;;;;;;;1.90;1.80;;;;;;;;;;6280360;28;20084;-69
2023/06/17 15:28:16;;;;;;;1.80;1.70;;;;;;;;;;6278298;28;20440;-70
2023/06/17 15:31:16;;;;;;;2.63;1.70;;;;;;;;;;6271840;28;20086;-68
2023/06/17 15:34:17;;;;;;;1.93;1.80;;;;;;;;;;6282279;28;20099;-71
2023/06/17 15:37:17;;;;;;;2.33;2.00;;;;;;;;;;6282566;28;20021;-70
2023/06/17 15:40:17;;;;;;;2.37;2.17;;;;;;;;;;6275108;28;20039;-70
2023/06/17 15:43:18;;;;;;;2.10;1.90;;;;;;;;;;6278019;28;20275;-70
2023/06/17 15:46:18;;;;;;;2.23;2.03;;;;;;;;;;6285110;28;20275;-70
2023/06/17 15:49:18;;;;;;;2.00;1.88;;;;;;;;;;6283435;28;20027;-70
2023/06/17 15:52:23;;;;;;;2.57;2.00;;;;;;;;;;6284143;28;20017;-68
2023/06/17 15:55:23;;;;;;;2.35;1.73;;;;;;;;;;6281887;28;20270;-67
2023/06/17 15:58:23;;;;;;;1.70;1.60;;;;;;;;;;6282114;28;20082;-67
2023/06/17 16:01:24;;;;;;;2.00;1.77;;;;;;;;;;6279078;28;20283;-69
2023/06/17 16:04:33;;;;;;;1.67;1.52;;;;;;;;;;6281954;28;20035;-72
2023/06/17 16:07:34;;;;;;;3.60;1.50;;;;;;;;;;6281006;28;20031;-71
2023/06/17 16:10:34;;;;;;;2.50;1.50;;;;;;;;;;6280371;28;20029;-69
2023/06/17 16:13:34;;;;;;;2.97;1.80;;;;;;;;;;6281397;28;20036;-69
2023/06/17 16:16:35;;;;;;;3.10;2.10;;;;;;;;;;6281702;28;22633;-71
2023/06/17 16:19:35;;;;;;;7.77;4.43;;;;;;;;;;6274433;28;20397;-74
2023/06/17 16:22:36;;;;;;;4.40;3.72;;;;;;;;;;6282915;28;20523;-69
2023/06/17 16:25:36;;;;;;;3.10;2.80;;;;;;;;;;6276552;28;20048;-71
2023/06/17 16:28:36;;;;;;;2.10;1.90;;;;;;;;;;6280434;28;20106;-71
2023/06/17 16:31:37;;;;;;;1.90;1.77;;;;;;;;;;6280953;28;20104;-70
2023/06/17 16:34:37;;;;;;;1.43;1.33;;;;;;;;;;6277712;28;20027;-71
2023/06/17 16:37:37;;;;;;;1.92;1.35;;;;;;;;;;6273719;28;20282;-70
2023/06/17 16:40:37;;;;;;;1.67;1.53;;;;;;;;;;6282334;28;20127;-70
2023/06/17 16:43:38;;;;;;;2.63;2.43;;;;;;;;;;6281581;28;20332;-71
2023/06/17 16:46:38;;;;;;;3.08;2.40;;;;;;;;;;6281663;28;20291;-71
2023/06/17 16:49:39;;;;;;;1.70;1.60;;;;;;;;;;6283965;28;20024;-72
2023/06/17 16:52:39;;;;;;;2.38;2.17;;;;;;;;;;6283833;28;20076;-70
2023/06/17 16:55:39;;;;;;;2.10;1.90;;;;;;;;;;6284269;28;20028;-68
2023/06/17 16:58:40;;;;;;;2.05;1.80;;;;;;;;;;6278505;28;20282;-67
2023/06/17 17:01:40;;;;;;;1.63;1.52;;;;;;;;;;6285158;28;20013;-67
2023/06/17 17:04:40;;;;;;;2.20;1.73;;;;;;;;;;6289098;28;20037;-66
2023/06/17 17:07:41;;;;;;;2.08;1.80;;;;;;;;;;6285024;28;20072;-67
2023/06/17 17:10:41;;;;;;;2.10;1.90;;;;;;;;;;6282602;28;20423;-67
2023/06/17 17:13:41;;;;;;;2.40;1.75;;;;;;;;;;6286908;28;20279;-67
2023/06/17 17:16:41;;;;;;;2.43;1.90;;;;;;;;;;6275676;28;20027;-67
2023/06/17 17:19:43;;;;;;;1.80;1.63;;;;;;;;;;6297402;28;20708;-68
2023/06/17 17:22:43;;;;;;;1.95;1.85;;;;;;;;;;6303836;28;20282;-71
2023/06/17 17:25:44;;;;;;;3.42;2.58;;;;;;;;;;6308500;28;20112;-70
2023/06/17 17:28:44;;;;;;;4.10;2.23;;;;;;;;;;6298646;28;20037;-70
2023/06/17 17:31:45;;;;;;;3.25;2.95;;;;;;;;;;6292219;28;20288;-71
2023/06/17 17:34:45;;;;;;;2.22;2.03;;;;;;;;;;6283790;28;20082;-71
2023/06/17 17:37:45;;;;;;;2.70;2.13;;;;;;;;;;6284321;28;20024;-70
2023/06/17 17:40:45;;;;;;;2.03;1.70;;;;;;;;;;6289850;28;20060;-69
2023/06/17 17:43:45;;;;;;;2.10;1.90;;;;;;;;;;6285468;28;20290;-69
2023/06/17 17:46:46;;;;;;;1.80;1.70;;;;;;;;;;6287054;28;20336;-69
2023/06/17 17:49:46;;;;;;;1.90;1.80;;;;;;;;;;6281377;28;20283;-69
2023/06/17 17:52:46;;;;;;;2.33;1.83;;;;;;;;;;6284904;28;20302;-69
2023/06/17 17:55:47;;;;;;;3.13;1.67;;;;;;;;;;6286195;28;20361;-68
2023/06/17 17:58:47;;;;;;;1.87;1.67;;;;;;;;;;6284726;28;20130;-68
2023/06/17 18:01:47;;;;;;;2.45;2.10;;;;;;;;;;6283044;28;20767;-68
2023/06/17 18:04:48;;;;;;;3.40;1.80;;;;;;;;;;6279057;28;20040;-69
2023/06/17 18:07:48;;;;;;;3.42;1.95;;;;;;;;;;6282025;28;20350;-68
2023/06/17 18:10:48;;;;;;;2.28;2.08;;;;;;;;;;6276616;28;20031;-68